Time;durP1;ratioP1;P1;durP2;ratioP2;P2;SDS_P1;SDS_P2;PMS_P1;PMS_P2;Temp;Humidity;BMP_temperature;BMP_pressure;BME280_temperature;BME280_humidity;BME280_pressure;Samples;Min_cycle;Max_cycle;Signal;HPM_P1;HPM_P2
2021/04/19 00:02:27;;;;;;;58.15;22.88;;;;;;;4.20;100.00;102195.81;5163223;28;20031;-79
2021/04/19 00:04:57;;;;;;;58.92;23.35;;;;;;;4.17;100.00;102191.56;5163591;28;20480;-78
2021/04/19 00:07:27;;;;;;;57.60;23.60;;;;;;;4.18;100.00;102195.06;5163310;28;20077;-78
2021/04/19 00:09:58;;;;;;;59.20;24.02;;;;;;;4.16;100.00;102189.84;5163172;28;20085;-78
2021/04/19 00:12:28;;;;;;;71.90;27.08;;;;;;;4.20;100.00;102190.50;5163501;28;20487;-78
2021/04/19 00:14:59;;;;;;;64.63;24.58;;;;;;;4.20;100.00;102186.06;5162730;28;20069;-78
2021/04/19 00:17:32;;;;;;;66.20;24.52;;;;;;;4.23;100.00;102193.84;5163531;28;20399;-79
2021/04/19 00:20:05;;;;;;;72.88;26.65;;;;;;;4.28;100.00;102189.09;5163515;28;20038;-78
2021/04/19 00:22:36;;;;;;;73.97;27.08;;;;;;;4.31;100.00;102191.56;5163218;28;20023;-78
2021/04/19 00:25:07;;;;;;;80.55;26.73;;;;;;;4.37;100.00;102180.59;5162847;28;20022;-78
2021/04/19 00:27:38;;;;;;;76.20;27.60;;;;;;;4.34;100.00;102180.75;5162976;28;20489;-78
2021/04/19 00:30:09;;;;;;;73.45;25.50;;;;;;;4.29;100.00;102177.53;5163133;28;20105;-78
2021/04/19 00:32:39;;;;;;;69.50;26.27;;;;;;;4.24;100.00;102176.94;5163193;28;20034;-78
2021/04/19 00:35:11;;;;;;;82.30;28.13;;;;;;;4.21;100.00;102170.97;5163650;28;20081;-78
2021/04/19 00:37:41;;;;;;;84.35;28.25;;;;;;;4.19;100.00;102171.06;5163207;28;20484;-77
2021/04/19 00:40:15;;;;;;;70.38;27.98;;;;;;;4.16;100.00;102169.44;5172629;28;20053;-78
2021/04/19 00:42:48;;;;;;;75.05;26.90;;;;;;;4.13;100.00;102172.28;5172285;28;20038;-78
2021/04/19 00:45:19;;;;;;;58.60;25.33;;;;;;;4.08;100.00;102163.75;5171611;28;20026;-78
2021/04/19 00:47:50;;;;;;;64.20;25.30;;;;;;;4.03;100.00;102163.16;5172565;28;20042;-78
2021/04/19 00:50:25;;;;;;;68.68;27.02;;;;;;;3.98;100.00;102167.06;5172595;28;20022;-78
2021/04/19 00:52:55;;;;;;;69.55;24.33;;;;;;;3.94;100.00;102165.53;5173610;28;20134;-78
2021/04/19 00:55:26;;;;;;;68.40;23.75;;;;;;;3.86;100.00;102160.66;5171373;28;20034;-78
2021/04/19 00:57:57;;;;;;;50.80;20.65;;;;;;;3.73;100.00;102157.03;5154514;28;20072;-78
2021/04/19 01:00:31;;;;;;;55.88;21.55;;;;;;;3.64;100.00;102161.91;5171651;28;20042;-78
2021/04/19 01:03:03;;;;;;;61.13;21.15;;;;;;;3.57;100.00;102157.91;5170486;28;20440;-78
2021/04/19 01:05:37;;;;;;;53.78;22.15;;;;;;;3.52;100.00;102160.00;5170616;28;20034;-78
2021/04/19 01:08:09;;;;;;;57.22;23.00;;;;;;;3.47;100.00;102159.41;5171699;28;20176;-78
2021/04/19 01:10:39;;;;;;;62.28;23.52;;;;;;;3.42;100.00;102158.81;5171604;28;20033;-78
2021/04/19 01:13:10;;;;;;;76.60;26.17;;;;;;;3.40;100.00;102157.16;5171851;28;20026;-78
2021/04/19 01:15:40;;;;;;;82.57;29.77;;;;;;;3.37;100.00;102150.25;5170514;28;20029;-78
2021/04/19 01:18:11;;;;;;;80.60;26.95;;;;;;;3.35;100.00;102150.31;5172324;28;20042;-78
2021/04/19 01:20:44;;;;;;;71.45;26.52;;;;;;;3.30;100.00;102152.38;5172288;28;20069;-78
2021/04/19 01:23:16;;;;;;;72.82;28.08;;;;;;;3.28;100.00;102148.97;5171412;28;20030;-78
2021/04/19 01:25:48;;;;;;;75.88;25.55;;;;;;;3.23;100.00;102153.69;5171719;28;20046;-78
2021/04/19 01:28:21;;;;;;;77.40;26.83;;;;;;;3.18;100.00;102142.50;5171502;28;20026;-78
2021/04/19 01:30:52;;;;;;;79.38;29.92;;;;;;;3.17;100.00;102138.13;5171934;28;20037;-78
2021/04/19 01:33:23;;;;;;;83.57;30.60;;;;;;;3.13;100.00;102139.25;5170789;28;20049;-78
2021/04/19 01:35:54;;;;;;;95.75;31.20;;;;;;;3.13;100.00;102139.25;5187113;28;20033;-78
2021/04/19 01:38:26;;;;;;;80.38;31.98;;;;;;;3.13;100.00;102136.59;5170421;28;20022;-78
2021/04/19 01:40:57;;;;;;;94.47;30.58;;;;;;;3.14;100.00;102140.09;5171006;28;20033;-78
2021/04/19 01:43:29;;;;;;;95.80;32.45;;;;;;;3.15;100.00;102144.44;5171119;28;20081;-78
2021/04/19 01:46:01;;;;;;;77.43;27.95;;;;;;;3.10;100.00;102142.06;5170743;28;20543;-78
2021/04/19 01:48:32;;;;;;;82.43;28.95;;;;;;;3.07;100.00;102142.25;5160268;28;20501;-78
2021/04/19 01:51:03;;;;;;;79.82;27.45;;;;;;;3.04;100.00;102137.09;5170805;28;20082;-78
2021/04/19 01:53:34;;;;;;;77.78;26.10;;;;;;;2.94;100.00;102130.59;5169989;28;20113;-78
2021/04/19 01:56:05;;;;;;;91.60;30.00;;;;;;;2.96;100.00;102123.41;5170655;28;20388;-78
2021/04/19 01:58:36;;;;;;;79.47;28.83;;;;;;;2.96;100.00;102129.59;5168592;28;20069;-78
2021/04/19 02:01:11;;;;;;;80.55;29.42;;;;;;;2.97;100.00;102117.19;5169275;28;20448;-78
2021/04/19 02:03:49;;;;;;;92.30;28.55;;;;;;;2.98;100.00;102114.44;5151980;28;20113;-78
2021/04/19 02:06:45;;;;;;;72.95;26.98;;;;;;;2.91;100.00;102102.47;5169630;28;20408;-78
2021/04/19 02:09:24;;;;;;;68.78;26.10;;;;;;;2.92;100.00;102113.94;5153760;28;20026;-78
2021/04/19 02:12:04;;;;;;;81.43;27.90;;;;;;;2.96;100.00;102113.69;5169474;28;20026;-78
2021/04/19 02:14:48;;;;;;;90.35;30.73;;;;;;;2.99;100.00;102116.16;5170286;28;20054;-78
2021/04/19 02:17:44;;;;;;;93.05;28.95;;;;;;;3.05;100.00;102117.59;5155773;28;20014;-78
2021/04/19 02:20:42;;;;;;;77.78;29.45;;;;;;;3.06;100.00;102111.34;5169465;28;20034;-78
2021/04/19 02:23:22;;;;;;;95.72;32.25;;;;;;;3.04;100.00;102113.25;5164591;28;20022;-78
2021/04/19 02:25:59;;;;;;;96.55;34.13;;;;;;;3.12;100.00;102113.69;5160255;28;20030;-78
2021/04/19 02:28:33;;;;;;;118.63;36.83;;;;;;;3.15;100.00;102109.97;5168136;28;20030;-78
2021/04/19 02:31:07;;;;;;;125.68;39.15;;;;;;;3.17;100.00;102108.13;5167685;28;20084;-78
2021/04/19 02:33:41;;;;;;;124.30;37.70;;;;;;;3.18;100.00;102107.16;5168214;28;20034;-77
2021/04/19 02:36:13;;;;;;;117.28;40.25;;;;;;;3.23;100.00;102111.25;5168365;28;20064;-77
2021/04/19 02:38:49;;;;;;;130.18;42.05;;;;;;;3.28;100.00;102116.31;5168335;28;20093;-78
2021/04/19 02:41:21;;;;;;;133.88;40.17;;;;;;;3.28;100.00;102111.84;5168371;28;20018;-78
2021/04/19 02:43:54;;;;;;;138.05;40.78;;;;;;;3.28;100.00;102117.16;5168502;28;20177;-78
2021/04/19 02:46:29;;;;;;;123.85;37.60;;;;;;;3.28;100.00;102111.00;5168716;28;20031;-78
2021/04/19 02:49:00;;;;;;;;;;;;;;;3.24;100.00;102115.63;5168557;28;20034;-78
2021/04/19 02:51:31;;;;;;;145.35;39.38;;;;;;;3.22;100.00;102114.84;5169349;28;19971;-78
2021/04/19 02:54:02;;;;;;;124.88;38.92;;;;;;;3.20;100.00;102119.38;5168812;28;20058;-78
2021/04/19 02:56:34;;;;;;;131.88;41.65;;;;;;;3.21;100.00;102114.91;5168993;28;20045;-78
2021/04/19 02:59:08;;;;;;;155.48;44.72;;;;;;;3.22;100.00;102114.84;5167916;28;20030;-78
2021/04/19 03:01:42;;;;;;;149.52;45.72;;;;;;;3.29;100.00;102115.34;5168279;28;20026;-78
2021/04/19 03:04:15;;;;;;;130.70;42.22;;;;;;;3.29;100.00;102116.19;5169400;28;20496;-78
2021/04/19 03:06:50;;;;;;;142.52;43.45;;;;;;;3.26;100.00;102116.41;5170102;28;20030;-78
2021/04/19 03:09:23;;;;;;;144.85;43.60;;;;;;;3.23;100.00;102113.91;5169832;28;20184;-78
2021/04/19 03:11:54;;;;;;;155.40;46.35;;;;;;;3.24;100.00;102117.41;5170310;28;20034;-78
2021/04/19 03:14:30;;;;;;;150.35;46.13;;;;;;;3.24;100.00;102128.03;5167414;28;20085;-81
2021/04/19 03:17:10;;;;;;;140.73;46.60;;;;;;;3.26;100.00;102121.69;5169280;28;20037;-78
2021/04/19 03:19:46;;;;;;;128.45;43.33;;;;;;;3.32;100.00;102124.00;5166799;28;20056;-78
2021/04/19 03:22:18;;;;;;;125.22;41.70;;;;;;;3.35;100.00;102130.91;5159931;28;20032;-78
2021/04/19 03:24:49;;;;;;;125.47;38.97;;;;;;;3.36;100.00;102128.19;5165988;28;20030;-78
2021/04/19 03:27:20;;;;;;;127.50;40.95;;;;;;;3.44;100.00;102132.19;5167013;28;20025;-78
2021/04/19 03:29:51;;;;;;;112.35;38.67;;;;;;;3.50;100.00;102127.38;5166492;28;20088;-78
2021/04/19 03:32:27;;;;;;;137.75;40.60;;;;;;;3.56;100.00;102119.03;5166487;28;20034;-78
2021/04/19 03:35:03;;;;;;;108.82;38.00;;;;;;;3.63;100.00;102115.09;5167105;28;20035;-78
2021/04/19 03:37:36;;;;;;;120.57;38.90;;;;;;;3.72;100.00;102113.72;5166378;28;20054;-78
2021/04/19 03:40:13;;;;;;;111.18;40.58;;;;;;;3.80;100.00;102114.09;5145089;28;20026;-78
2021/04/19 03:42:47;;;;;;;112.53;37.38;;;;;;;3.87;100.00;102112.78;5148783;28;20045;-78
2021/04/19 03:45:20;;;;;;;78.90;33.80;;;;;;;3.87;100.00;102112.78;5166037;28;20026;-78
2021/04/19 03:47:55;;;;;;;86.47;31.70;;;;;;;3.84;100.00;102105.00;5165763;28;20034;-77
2021/04/19 03:50:27;;;;;;;84.95;31.73;;;;;;;3.78;100.00;102110.69;5165227;28;20027;-78
2021/04/19 03:52:59;;;;;;;74.70;30.20;;;;;;;3.73;100.00;102103.94;5163922;28;20113;-77
2021/04/19 03:55:30;;;;;;;79.10;28.92;;;;;;;3.66;100.00;102103.44;5165337;28;20030;-78
2021/04/19 03:58:01;;;;;;;81.97;29.17;;;;;;;3.60;100.00;102106.44;5164871;28;20451;-78
2021/04/19 04:00:33;;;;;;;62.50;27.15;;;;;;;3.58;100.00;102103.91;5163816;28;20026;-78
2021/04/19 04:03:04;;;;;;;79.85;29.35;;;;;;;3.56;100.00;102097.81;5165005;28;20176;-78
2021/04/19 04:05:36;;;;;;;69.60;28.10;;;;;;;3.56;100.00;102096.97;5164498;28;20031;-78
2021/04/19 04:08:07;;;;;;;71.15;27.52;;;;;;;3.55;100.00;102097.91;5163758;28;20026;-78
2021/04/19 04:10:39;;;;;;;79.18;30.75;;;;;;;3.55;100.00;102098.75;5163729;28;20047;-78
2021/04/19 04:13:09;;;;;;;96.88;32.03;;;;;;;3.61;100.00;102103.72;5165311;28;20520;-78
2021/04/19 04:15:50;;;;;;;99.50;33.40;;;;;;;3.68;100.00;102104.22;5166413;28;20028;-78
2021/04/19 04:18:21;;;;;;;100.85;33.28;;;;;;;3.72;100.00;102096.94;5165846;28;20018;-78
2021/04/19 04:20:52;;;;;;;93.32;34.92;;;;;;;3.74;100.00;102106.50;5165520;28;20045;-78
2021/04/19 04:23:22;;;;;;;118.07;37.17;;;;;;;3.80;100.00;102095.50;5165460;28;20084;-78
2021/04/19 04:25:53;;;;;;;122.88;39.03;;;;;;;3.84;100.00;102096.19;5165884;28;20117;-78
2021/04/19 04:28:25;;;;;;;116.82;39.08;;;;;;;3.86;100.00;102091.63;5165635;28;20080;-78
2021/04/19 04:30:55;;;;;;;119.65;38.85;;;;;;;3.90;100.00;102088.69;5164979;28;20592;-78
2021/04/19 04:33:26;;;;;;;118.38;39.90;;;;;;;3.92;100.00;102083.31;5164875;28;20483;-77
2021/04/19 04:35:56;;;;;;;106.72;37.90;;;;;;;3.94;100.00;102091.16;5164329;28;20022;-78
2021/04/19 04:38:26;;;;;;;133.25;38.40;;;;;;;4.00;100.00;102094.31;5164986;28;20123;-78
2021/04/19 04:40:57;;;;;;;116.32;35.67;;;;;;;4.04;100.00;102087.88;5163335;28;20427;-78
2021/04/19 04:43:30;;;;;;;125.72;39.53;;;;;;;4.03;100.00;102087.97;5153169;28;20599;-79
2021/04/19 04:46:11;;;;;;;117.82;38.20;;;;;;;4.05;100.00;102083.41;5164032;28;20030;-78
2021/04/19 04:48:54;;;;;;;122.93;39.78;;;;;;;4.00;100.00;102081.03;5155448;28;20081;-78
2021/04/19 04:51:28;;;;;;;103.97;38.58;;;;;;;3.97;100.00;102078.56;5150513;28;20057;-78
2021/04/19 04:54:02;;;;;;;199.13;68.03;;;;;;;3.93;100.00;102078.84;5163374;28;20022;-78
2021/04/19 04:56:36;;;;;;;178.93;62.53;;;;;;;3.86;100.00;102079.19;5165087;28;20076;-78
2021/04/19 04:59:09;;;;;;;175.50;59.83;;;;;;;3.85;100.00;102082.81;5164185;28;20030;-78
2021/04/19 05:01:43;;;;;;;152.93;54.08;;;;;;;3.85;100.00;102088.13;5164600;28;20527;-78
2021/04/19 05:04:14;;;;;;;131.00;50.10;;;;;;;3.83;100.00;102079.41;5164166;28;20054;-78
2021/04/19 05:06:46;;;;;;;145.50;49.30;;;;;;;3.83;100.00;102084.72;5164065;28;20561;-78
2021/04/19 05:09:16;;;;;;;140.93;50.15;;;;;;;3.80;100.00;102079.56;5163810;28;20508;-78
2021/04/19 05:11:47;;;;;;;130.20;48.33;;;;;;;3.82;100.00;102080.34;5163168;28;20094;-78
2021/04/19 05:14:24;;;;;;;125.38;44.75;;;;;;;3.84;100.00;102075.78;5164138;28;20023;-78
2021/04/19 05:16:54;;;;;;;123.97;46.63;;;;;;;3.88;100.00;102077.31;5163538;28;20030;-78
2021/04/19 05:19:25;;;;;;;107.28;42.35;;;;;;;3.96;100.00;102086.63;5164898;28;20041;-78
2021/04/19 05:21:55;;;;;;;111.30;37.78;;;;;;;4.00;100.00;102086.34;5166128;28;20034;-78
2021/04/19 05:24:26;;;;;;;107.03;38.85;;;;;;;4.05;100.00;102088.72;5169111;28;20062;-78
2021/04/19 05:26:56;;;;;;;104.07;39.72;;;;;;;4.08;100.00;102091.19;5171476;28;20035;-78
2021/04/19 05:29:27;;;;;;;152.77;57.83;;;;;;;4.13;100.00;102089.97;5170252;28;20021;-77
2021/04/19 05:31:57;;;;;;;208.95;80.63;;;;;;;4.24;100.00;102083.97;5169860;28;20361;-78
2021/04/19 05:34:29;;;;;;;129.52;45.90;;;;;;;4.34;100.00;102089.56;5170362;28;20033;-78
2021/04/19 05:37:01;;;;;;;133.13;45.95;;;;;;;4.47;100.00;102097.63;5186588;28;20022;-79
2021/04/19 05:39:33;;;;;;;136.35;48.65;;;;;;;4.63;100.00;102085.09;5170485;28;20065;-78
2021/04/19 05:42:04;;;;;;;128.13;44.70;;;;;;;4.87;100.00;102087.97;5160758;28;20027;-78
2021/04/19 05:44:35;;;;;;;115.95;41.33;;;;;;;4.99;100.00;102087.19;5169106;28;20453;-79
2021/04/19 05:47:07;;;;;;;115.30;44.65;;;;;;;5.13;100.00;102088.94;5171290;28;20032;-78
2021/04/19 05:49:38;;;;;;;105.00;40.97;;;;;;;5.20;100.00;102083.09;5170988;28;20053;-79
2021/04/19 05:52:10;;;;;;;109.35;37.88;;;;;;;5.25;100.00;102089.94;5169759;28;20125;-79
2021/04/19 05:54:41;;;;;;;85.20;33.83;;;;;;;5.28;100.00;102092.41;5170897;28;20028;-79
2021/04/19 05:57:22;;;;;;;95.32;36.63;;;;;;;5.31;100.00;102098.34;5169859;28;20019;-79
2021/04/19 06:00:05;;;;;;;107.95;36.88;;;;;;;5.35;100.00;102102.53;5170176;28;20034;-78
2021/04/19 06:02:56;;;;;;;115.10;41.67;;;;;;;5.45;100.00;102106.28;5170288;28;20105;-79
2021/04/19 06:05:32;;;;;;;113.38;40.47;;;;;;;5.60;100.00;102103.56;5170350;28;20057;-79
2021/04/19 06:08:12;;;;;;;102.88;39.30;;;;;;;5.59;100.00;102102.69;5170842;28;20031;-79
2021/04/19 06:10:56;;;;;;;115.43;42.88;;;;;;;5.47;100.00;102124.81;5170017;28;20034;-79
2021/04/19 06:13:27;;;;;;;133.82;42.42;;;;;;;5.62;100.00;102134.44;5169821;28;20500;-78
2021/04/19 06:16:00;;;;;;;128.40;42.13;;;;;;;5.72;100.00;102132.88;5170511;28;20491;-78
2021/04/19 06:18:32;;;;;;;143.48;42.60;;;;;;;5.75;100.00;102129.13;5170660;28;20076;-78
2021/04/19 06:21:05;;;;;;;118.50;41.25;;;;;;;5.92;100.00;102131.56;5170647;28;20033;-80
2021/04/19 06:23:35;;;;;;;136.10;43.38;;;;;;;6.05;100.00;102130.72;5168558;28;20030;-80
2021/04/19 06:26:07;;;;;;;127.30;42.45;;;;;;;6.16;100.00;102136.13;5169060;28;20038;-80
2021/04/19 06:28:38;;;;;;;125.55;43.00;;;;;;;6.18;100.00;102126.25;5168215;28;20392;-80
2021/04/19 06:31:13;;;;;;;134.10;46.35;;;;;;;6.26;100.00;102115.03;5170396;28;20040;-80
2021/04/19 06:34:02;;;;;;;131.63;44.60;;;;;;;6.35;100.00;102117.91;5169490;28;20046;-81
2021/04/19 06:36:35;;;;;;;134.10;43.08;;;;;;;6.38;100.00;102109.72;5169166;28;20034;-81
2021/04/19 06:39:08;;;;;;;134.20;46.42;;;;;;;6.40;100.00;102105.09;5170186;28;20023;-80
2021/04/19 06:41:39;;;;;;;134.57;45.80;;;;;;;6.59;100.00;102107.31;5169946;28;20041;-78
2021/04/19 06:44:13;;;;;;;147.98;46.20;;;;;;;6.81;100.00;102103.94;5170903;28;20483;-79
2021/04/19 06:46:45;;;;;;;143.20;46.92;;;;;;;6.80;100.00;102096.91;5170466;28;20034;-79
2021/04/19 06:49:15;;;;;;;132.30;47.03;;;;;;;6.93;100.00;102092.41;5168661;28;20113;-79
2021/04/19 06:51:46;;;;;;;138.32;59.22;;;;;;;7.09;100.00;102091.28;5170103;28;20054;-79
2021/04/19 06:54:17;;;;;;;142.45;49.53;;;;;;;7.16;100.00;102084.50;5170499;28;20064;-79
2021/04/19 06:56:50;;;;;;;140.95;49.63;;;;;;;7.19;100.00;102085.13;5169677;28;20038;-80
2021/04/19 06:59:23;;;;;;;142.60;47.08;;;;;;;7.11;100.00;102084.00;5170126;28;20022;-77
2021/04/19 07:01:54;;;;;;;145.02;44.45;;;;;;;7.12;100.00;102083.03;5170148;28;20015;-78
2021/04/19 07:04:27;;;;;;;132.40;47.38;;;;;;;7.27;100.00;102092.56;5169594;28;20065;-79
2021/04/19 07:06:59;;;;;;;141.00;48.42;;;;;;;7.37;100.00;102084.72;5170337;28;20122;-78
2021/04/19 07:09:35;;;;;;;129.02;47.35;;;;;;;7.55;100.00;102087.84;5169133;28;20559;-79
2021/04/19 07:12:11;;;;;;;126.97;44.92;;;;;;;7.58;100.00;102079.56;5169042;28;20057;-78
2021/04/19 07:14:42;;;;;;;133.50;48.72;;;;;;;7.80;100.00;102082.31;5165217;28;20026;-79
2021/04/19 07:17:12;;;;;;;134.32;47.35;;;;;;;7.86;100.00;102081.00;5166466;28;20025;-79
2021/04/19 07:19:43;;;;;;;140.40;48.78;;;;;;;8.01;100.00;102079.78;5168362;28;20026;-78
2021/04/19 07:22:16;;;;;;;134.05;48.72;;;;;;;8.14;100.00;102090.41;5168817;28;20034;-79
2021/04/19 07:24:46;;;;;;;114.32;44.90;;;;;;;8.35;100.00;102085.19;5169426;28;20026;-80
2021/04/19 07:27:18;;;;;;;123.13;45.13;;;;;;;8.40;100.00;102086.53;5170565;28;20085;-79
2021/04/19 07:29:49;;;;;;;117.72;45.75;;;;;;;8.29;100.00;102084.69;5169608;28;20420;-79
2021/04/19 07:32:32;;;;;;;121.90;45.33;;;;;;;8.38;100.00;102075.09;5169697;28;20037;-77
2021/04/19 07:35:05;;;;;;;122.88;45.58;;;;;;;8.35;100.00;102074.47;5170395;28;20057;-79
2021/04/19 07:37:36;;;;;;;112.55;43.75;;;;;;;8.22;100.00;102077.25;5170547;28;20032;-79
2021/04/19 07:40:26;;;;;;;128.32;48.22;;;;;;;8.07;100.00;102078.47;5170369;28;20027;-79
2021/04/19 07:43:07;;;;;;;126.03;48.15;;;;;;;8.39;100.00;102084.84;5156540;28;20151;-79
2021/04/19 07:45:40;;;;;;;115.90;44.00;;;;;;;8.66;100.00;102081.78;5170241;28;20064;-79
2021/04/19 07:48:29;;;;;;;122.72;45.80;;;;;;;8.75;100.00;102072.16;5169812;28;20053;-79
2021/04/19 07:51:20;;;;;;;115.38;43.45;;;;;;;8.95;100.00;102062.50;5169817;28;20103;-79
2021/04/19 07:54:11;;;;;;;102.88;42.83;;;;;;;9.29;100.00;102069.44;5169371;28;20037;-80
2021/04/19 07:56:43;;;;;;;91.07;41.33;;;;;;;9.71;100.00;102072.16;5169544;28;20125;-79
2021/04/19 07:59:26;;;;;;;97.00;40.83;;;;;;;9.78;100.00;102073.31;5169640;28;20536;-79
2021/04/19 08:02:04;;;;;;;92.85;41.42;;;;;;;10.06;100.00;102060.22;5167452;28;20034;-79
2021/04/19 08:04:45;;;;;;;84.68;39.03;;;;;;;10.30;100.00;102059.94;5181277;28;20030;-77
2021/04/19 08:07:24;;;;;;;92.38;39.80;;;;;;;10.44;100.00;102058.72;5168640;28;20026;-78
2021/04/19 08:10:04;;;;;;;78.03;37.15;;;;;;;10.49;100.00;102061.84;5168126;28;20061;-79
2021/04/19 08:12:38;;;;;;;78.82;36.80;;;;;;;10.66;100.00;102052.31;5156882;28;20391;-78
2021/04/19 08:15:11;;;;;;;80.18;36.08;;;;;;;10.65;100.00;102058.66;5167692;28;20032;-78
2021/04/19 08:17:42;;;;;;;81.32;36.83;;;;;;;10.78;100.00;102049.34;5169656;28;20030;-79
2021/04/19 08:20:15;;;;;;;89.78;37.75;;;;;;;10.81;100.00;102056.28;5166899;28;20026;-78
2021/04/19 08:22:45;;;;;;;76.13;33.97;;;;;;;10.70;100.00;102056.41;5167859;28;20472;-79
2021/04/19 08:25:18;;;;;;;71.57;32.45;;;;;;;10.71;100.00;102063.47;5167560;28;20065;-79
2021/04/19 08:28:01;;;;;;;64.63;31.30;;;;;;;10.73;100.00;102069.53;5168470;28;20031;-79
2021/04/19 08:30:33;;;;;;;62.75;31.55;;;;;;;10.71;100.00;102060.78;5156411;28;20396;-79
2021/04/19 08:33:05;;;;;;;70.93;30.20;;;;;;;10.80;100.00;102062.66;5166959;28;20026;-79
2021/04/19 08:35:37;;;;;;;70.68;30.85;;;;;;;10.70;100.00;102064.47;5167967;28;20031;-79
2021/04/19 08:38:08;;;;;;;60.00;29.33;;;;;;;10.68;100.00;102063.72;5165712;28;20033;-79
2021/04/19 08:40:40;;;;;;;64.68;29.67;;;;;;;10.67;100.00;102068.25;5165238;28;20051;-79
2021/04/19 08:43:18;;;;;;;57.83;30.25;;;;;;;10.71;100.00;102063.47;5166229;28;20503;-79
2021/04/19 08:45:49;;;;;;;59.80;27.30;;;;;;;10.76;100.00;102061.22;5166768;28;20031;-79
2021/04/19 08:48:19;;;;;;;65.97;26.65;;;;;;;10.86;100.00;102048.66;5166530;28;20048;-80
2021/04/19 08:50:53;;;;;;;62.20;28.67;;;;;;;11.06;100.00;102053.06;5166840;28;20105;-79
2021/04/19 08:53:23;;;;;;;50.13;27.20;;;;;;;11.36;100.00;102053.94;5166467;28;20034;-79
2021/04/19 08:55:54;;;;;;;61.67;26.73;;;;;;;11.63;100.00;102045.97;5167070;28;20552;-80
2021/04/19 08:58:26;;;;;;;50.17;25.50;;;;;;;11.76;100.00;102047.53;5166734;28;20023;-79
2021/04/19 09:01:00;;;;;;;51.67;23.65;;;;;;;11.97;100.00;102050.03;5170205;28;20102;-78
2021/04/19 09:03:30;;;;;;;46.78;22.35;;;;;;;12.10;100.00;102043.34;5172337;28;20395;-79
2021/04/19 09:06:14;;;;;;;43.50;21.60;;;;;;;12.05;100.00;102040.25;5169235;28;20031;-78
2021/04/19 09:08:46;;;;;;;50.50;20.30;;;;;;;11.89;100.00;102042.69;5169911;28;20077;-79
2021/04/19 09:11:27;;;;;;;43.17;20.83;;;;;;;11.71;100.00;102047.94;5167942;28;20034;-79
2021/04/19 09:14:04;;;;;;;44.58;19.98;;;;;;;11.80;100.00;102035.50;5168940;28;20022;-79
2021/04/19 09:16:36;;;;;;;37.80;17.55;;;;;;;12.21;100.00;102033.41;5168778;28;20022;-79
2021/04/19 09:19:08;;;;;;;35.70;16.45;;;;;;;12.31;100.00;102028.81;5169692;28;20403;-79
2021/04/19 09:21:42;;;;;;;25.33;13.18;;;;;;;12.37;100.00;102034.44;5168214;28;20022;-79
2021/04/19 09:24:17;;;;;;;25.80;12.00;;;;;;;12.73;100.00;102031.84;5168390;28;20097;-79
2021/04/19 09:26:53;;;;;;;37.05;14.07;;;;;;;13.08;100.00;102028.31;5168808;28;20032;-78
2021/04/19 09:29:24;;;;;;;31.38;13.50;;;;;;;13.00;100.00;102033.63;5167153;28;20030;-79
2021/04/19 09:31:56;;;;;;;33.63;13.20;;;;;;;12.94;100.00;102039.63;5167504;28;20026;-79
2021/04/19 09:34:49;;;;;;;28.83;13.05;;;;;;;13.05;100.00;102039.44;5167978;28;20109;-79
2021/04/19 09:37:23;;;;;;;33.10;13.45;;;;;;;13.27;100.00;102029.19;5167470;28;20022;-79
2021/04/19 09:39:58;;;;;;;24.95;12.80;;;;;;;13.42;100.00;102030.34;5168169;28;20033;-80
2021/04/19 09:42:54;;;;;;;30.73;13.63;;;;;;;13.49;100.00;102042.19;5154246;28;20031;-79
2021/04/19 09:45:44;;;;;;;26.95;12.80;;;;;;;13.72;93.67;102035.28;5170669;28;20049;-79
2021/04/19 09:48:27;;;;;;;27.27;13.02;;;;;;;13.50;95.87;102041.16;5171104;28;20034;-80
2021/04/19 09:51:00;;;;;;;24.20;12.98;;;;;;;13.76;84.10;102035.81;5168324;28;20035;-79
2021/04/19 09:53:31;;;;;;;25.83;13.10;;;;;;;13.83;80.65;102049.50;5171169;28;20034;-79
2021/04/19 09:56:01;;;;;;;29.00;13.02;;;;;;;13.86;83.34;102038.41;5167819;28;20098;-80
2021/04/19 09:58:36;;;;;;;28.92;13.88;;;;;;;13.77;88.85;102033.97;5167762;28;20026;-79
2021/04/19 10:01:07;;;;;;;29.05;13.15;;;;;;;14.09;89.81;102034.16;5166008;28;20498;-80
2021/04/19 10:03:38;;;;;;;32.97;14.63;;;;;;;14.23;82.64;102035.41;5165046;28;20507;-80
2021/04/19 10:06:09;;;;;;;30.58;15.65;;;;;;;14.57;100.00;102034.59;5167671;28;20373;-81
2021/04/19 10:08:42;;;;;;;29.85;13.90;;;;;;;14.95;90.39;102019.63;5171296;28;20060;-81
2021/04/19 10:11:13;;;;;;;29.40;13.98;;;;;;;15.26;69.94;102011.72;5169697;28;20494;-80
2021/04/19 10:13:44;;;;;;;26.55;15.02;;;;;;;15.37;71.02;102013.25;5171323;28;20024;-80
2021/04/19 10:16:14;;;;;;;28.70;15.80;;;;;;;15.15;81.39;102012.91;5171575;28;20446;-81
2021/04/19 10:18:51;;;;;;;27.17;14.88;;;;;;;15.21;78.59;102011.38;5171720;28;20041;-80
2021/04/19 10:21:24;;;;;;;27.13;13.25;;;;;;;15.41;74.03;102011.88;5168990;28;20484;-80
2021/04/19 10:23:56;;;;;;;31.65;14.95;;;;;;;15.46;69.58;102009.50;5170817;28;20073;-81
2021/04/19 10:26:37;;;;;;;25.25;14.13;;;;;;;15.10;72.82;101996.34;5171356;28;20030;-81
2021/04/19 10:29:09;;;;;;;35.17;16.02;;;;;;;15.00;80.32;101999.19;5185713;28;20037;-80
2021/04/19 10:31:51;;;;;;;33.80;14.77;;;;;;;15.22;83.79;101997.72;5170238;28;20026;-79
2021/04/19 10:34:26;;;;;;;26.52;14.18;;;;;;;15.38;67.52;101996.88;5170446;28;20038;-79
2021/04/19 10:36:59;;;;;;;26.13;13.73;;;;;;;15.63;64.11;101992.31;5158081;28;20022;-79
2021/04/19 10:39:33;;;;;;;27.33;14.40;;;;;;;15.62;66.32;101989.75;5170264;28;20018;-80
2021/04/19 10:42:05;;;;;;;28.02;12.70;;;;;;;15.78;59.42;101996.00;5169267;28;20109;-81
2021/04/19 10:44:44;;;;;;;21.80;12.55;;;;;;;15.65;59.15;101989.41;5170643;28;20030;-82
2021/04/19 10:47:26;;;;;;;30.13;13.00;;;;;;;15.34;59.51;101986.56;5172706;28;20030;-82
2021/04/19 10:49:56;;;;;;;19.85;12.07;;;;;;;14.87;63.35;101985.34;5171399;28;20037;-82
2021/04/19 10:52:27;;;;;;;26.27;13.35;;;;;;;14.48;65.39;101987.78;5170935;28;20397;-82
2021/04/19 10:55:04;;;;;;;25.00;12.43;;;;;;;14.15;67.86;101984.94;5172523;28;20018;-81
2021/04/19 10:57:35;;;;;;;23.35;12.77;;;;;;;13.93;74.17;101983.66;5171662;28;20050;-82
2021/04/19 11:00:06;;;;;;;26.85;13.20;;;;;;;13.70;88.04;101980.69;5171490;28;20030;-82
2021/04/19 11:02:37;;;;;;;27.90;14.02;;;;;;;13.55;93.20;101981.38;5172382;28;20289;-82
2021/04/19 11:05:12;;;;;;;25.63;12.90;;;;;;;13.68;100.00;101984.53;5170595;28;20042;-83
2021/04/19 11:07:43;;;;;;;31.25;14.25;;;;;;;13.63;100.00;101982.31;5172131;28;20062;-82
2021/04/19 11:10:25;;;;;;;25.10;12.70;;;;;;;13.63;100.00;101981.47;5171819;28;20089;-82
2021/04/19 11:13:05;;;;;;;27.80;14.63;;;;;;;13.20;100.00;101986.69;5171013;28;20030;-83
2021/04/19 11:15:46;;;;;;;28.88;14.95;;;;;;;12.85;100.00;101983.97;5171871;28;20039;-83
2021/04/19 11:18:21;;;;;;;28.75;13.50;;;;;;;13.15;100.00;101986.31;5166820;28;20570;-82
2021/04/19 11:20:53;;;;;;;36.38;16.15;;;;;;;12.89;100.00;101985.38;5165568;28;20026;-81
2021/04/19 11:23:27;;;;;;;34.80;17.38;;;;;;;12.40;100.00;101991.09;5165090;28;20034;-82
2021/04/19 11:26:00;;;;;;;33.28;18.20;;;;;;;12.09;100.00;101987.84;5166035;28;20053;-82
2021/04/19 11:28:38;;;;;;;36.47;19.08;;;;;;;11.91;100.00;101992.31;5165948;28;20061;-82
2021/04/19 11:31:12;;;;;;;44.17;19.95;;;;;;;11.85;100.00;101988.38;5165166;28;20407;-81
2021/04/19 11:33:43;;;;;;;34.78;19.45;;;;;;;11.88;100.00;101990.75;5165747;28;20034;-81
2021/04/19 11:36:14;;;;;;;41.75;19.73;;;;;;;11.90;100.00;101994.16;5163773;28;20488;-81